WetterOnline ( https://www.wetteronline.ch )

Wetter aktuell München

Aktuelles Wetter: München/Stadt (535m)

6-stündlich | Neueste Meldungen
Ortszeit Temperatur Wetter
Mi, 17.07. 8:00 19.5° C bewölkt
Mi, 17.07. 2:00 19.1° C bedeckt
Di, 16.07. 20:00 23.3° C bedeckt
Di, 16.07. 14:00 23.3° C wolkig
Di, 16.07. 8:00 18.9° C leichter Regen
Di, 16.07. 2:00 17.9° C leichter Regen
Mo, 15.07. 20:00 29.3° C leicht bewölkt
Mo, 15.07. 14:00 30.7° C wolkig
Ortszeit Temperatur Wetter
Mi, 17.07. 11:10 19.7° C bedeckt
Mi, 17.07. 11:00 19.5° C bedeckt
Mi, 17.07. 10:50 19.5° C bedeckt
Mi, 17.07. 10:40 19.6° C bedeckt
Mi, 17.07. 10:30 19.6° C bedeckt
Mi, 17.07. 10:20 19.6° C bedeckt
Mi, 17.07. 10:00 19.4° C bedeckt
Mi, 17.07. 9:30 19.4° C bedeckt
Mi, 17.07. 9:00 19.4° C bedeckt
Mi, 17.07. 8:30 19.5° C bedeckt
Ortszeit Relative Feuchte Sichtweite
Mi, 17.07. 8:00 62% 55 km
Mi, 17.07. 2:00 75% 65 km
Di, 16.07. 20:00 63% 60 km
Di, 16.07. 14:00 67% 50 km
Di, 16.07. 8:00 89% 45 km
Di, 16.07. 2:00 93% 15 km
Mo, 15.07. 20:00 45% 50 km
Mo, 15.07. 14:00 36% 55 km
Ortszeit Relative Feuchte Sichtweite
Mi, 17.07. 11:10 62% -
Mi, 17.07. 11:00 63% 50 km
Mi, 17.07. 10:50 63% -
Mi, 17.07. 10:40 62% -
Mi, 17.07. 10:30 61% 60 km
Mi, 17.07. 10:20 61% -
Mi, 17.07. 10:00 61% 60 km
Mi, 17.07. 9:30 61% 65 km
Mi, 17.07. 9:00 59% 45 km
Mi, 17.07. 8:30 64% 55 km
Ortszeit Niederschlagsmenge Niederschlagsart
Mi, 17.07. 8:00 0.5 l/m2 in 12 Std. -
Mi, 17.07. 2:00 0.5 l/m2 in 6 Std. Regen
Di, 16.07. 20:00 0.2 l/m2 in 12 Std. -
Di, 16.07. 14:00 0.2 l/m2 in 6 Std. Regen
Di, 16.07. 8:00 13 l/m2 in 12 Std. Regen
Di, 16.07. 2:00 11 l/m2 in 6 Std. Regen
Mo, 15.07. 20:00 0.0 l/m2 in 12 Std. -
Mo, 15.07. 14:00 0.0 l/m2 in 6 Std. -
Ortszeit Niederschlagsmenge Niederschlagsart
Mi, 17.07. 11:10 keine Meldung -
Mi, 17.07. 11:00 0.0 l/m2 in 1 Std. -
Mi, 17.07. 10:50 keine Meldung -
Mi, 17.07. 10:40 keine Meldung -
Mi, 17.07. 10:30 0.0 l/m2 in 30 Min -
Mi, 17.07. 10:20 keine Meldung -
Mi, 17.07. 10:00 0.0 l/m2 in 1 Std. -
Mi, 17.07. 9:30 0.0 l/m2 in 30 Min -
Mi, 17.07. 9:00 0.0 l/m2 in 1 Std. -
Mi, 17.07. 8:30 0.0 l/m2 in 30 Min -
Ortszeit Stärke Spitze Richtung
km/h Bft. km/h Grad Sektor
Mi, 17.07. 8:00 2 1 15 350° N
Mi, 17.07. 2:00 6 1 17 290° W
Di, 16.07. 20:00 9 2 22 350° N
Di, 16.07. 14:00 7 2 22 270° W
Di, 16.07. 8:00 7 2 18 200° S
Di, 16.07. 2:00 7 2 61 260° W
Mo, 15.07. 20:00 9 2 30 70° O
Mo, 15.07. 14:00 11 2 25 50° NO
Ortszeit Stärke Spitze Richtung
km/h Bft. km/h Grad Sektor
Mi, 17.07. 11:10 7 2 - 340° N
Mi, 17.07. 11:00 7 2 14 330° NW
Mi, 17.07. 10:50 7 2 - 330° NW
Mi, 17.07. 10:40 7 2 - 350° N
Mi, 17.07. 10:30 6 1 9 360° N
Mi, 17.07. 10:20 6 1 - 360° N
Mi, 17.07. 10:00 6 1 11 340° N
Mi, 17.07. 9:30 7 2 11 340° N
Mi, 17.07. 9:00 4 1 11 30° NO
Mi, 17.07. 8:30 4 1 11 360° N
Ortszeit Untergrenze Bedeckung Gattung
total tief tief mittel hoch
Mi, 17.07. 8:00 1500 m 8/8 7/8 - - -
Mi, 17.07. 2:00 1500 m 8/8 8/8 - - -
Di, 16.07. 20:00 1500 m 8/8 8/8 - - -
Di, 16.07. 14:00 780 m 8/8 1/8 - - -
Di, 16.07. 8:00 2100 m 7/8 1/8 - - -
Di, 16.07. 2:00 1500 m 8/8 4/8 - - -
Mo, 15.07. 20:00 3600 m 4/8 4/8 - - -
Mo, 15.07. 14:00 5400 m 7/8 7/8 - - -
Ortszeit Bedeckungsgrad in Achtel und Wolkenuntergrenze
Mi, 17.07. 11:10 8
Mi, 17.07. 11:00 1(1440m) 8(1500m)
Mi, 17.07. 10:50 1(1440m) 8(1500m)
Mi, 17.07. 10:40 8
Mi, 17.07. 10:30 8(1500m)
Mi, 17.07. 10:20 8(1500m)
Mi, 17.07. 10:00 2(1440m) 8(1500m)
Mi, 17.07. 9:30 1(1410m) 8(1500m)
Mi, 17.07. 9:00 8(1800m)
Mi, 17.07. 8:30 8(1800m)
Ortszeit Luftdruck NN (hPa) Tendenz (hPa in 3 Std.)
Mi, 17.07. 8:00 1020 + 1,0
Mi, 17.07. 2:00 1019 + 1,0
Di, 16.07. 20:00 1015 + 0,8
Di, 16.07. 14:00 1014 - 0,1
Di, 16.07. 8:00 1015 + 1,5
Di, 16.07. 2:00 1014 + 4,1
Mo, 15.07. 20:00 1008 - 0,8
Mo, 15.07. 14:00 1010 - 1,3
Ortszeit Luftdruck NN (hPa) Tendenz (hPa in 3 Std.)
Mi, 17.07. 11:10 1021 keine Meldung
Mi, 17.07. 11:00 1021 + 0,7
Mi, 17.07. 10:50 1021 keine Meldung
Mi, 17.07. 10:40 1021 keine Meldung
Mi, 17.07. 10:30 1021 + 0,8
Mi, 17.07. 10:20 1021 keine Meldung
Mi, 17.07. 10:00 1021 + 0,8
Mi, 17.07. 9:30 1021 + 1,1
Mi, 17.07. 9:00 1020 + 0,9
Mi, 17.07. 8:30 1020 + 0,8
Ortszeit Schneehöhe (cm)
Mi, 17.07. 8:00 0
Mi, 17.07. 2:00 0
Di, 16.07. 20:00 0
Di, 16.07. 14:00 0
Di, 16.07. 8:00 0
Di, 16.07. 2:00 0
Mo, 15.07. 20:00 0
Mo, 15.07. 14:00 0
Ortszeit Schneehöhe (cm)
Mi, 17.07. 11:10 -
Mi, 17.07. 11:00 0
Mi, 17.07. 10:50 0
Mi, 17.07. 10:40 -
Mi, 17.07. 10:30 0
Mi, 17.07. 10:20 0
Mi, 17.07. 10:00 0
Mi, 17.07. 9:30 0
Mi, 17.07. 9:00 0
Mi, 17.07. 8:30 0
Link zu dieser Seite / Seite empfehlen

Das Wetter in ...